Aviation Digital Data Service (ADDS)

Output produced by METARs form (1421 UTC 20 July 2019)
found at http://www.aviationweather.gov/metar/data/
 
Forecast for: RJOH (MIHO (CIV/JASDF), JP)
Text: TAF RJOH 201107Z 2012/2118 14006KT 9999 -SHRA FEW010 SCT030 BKN050
Forecast period: 1200 to 1300 UTC 20 July 2019
Forecast type: FROM: standard forecast or significant change
Winds: from the SE (140 degrees) at 7 MPH (6 knots; 3.1 m/s)
Visibility: 6 or more miles 10+ km)
Ceiling: 5000 feet AGL
Clouds: few clouds at 1000 feet AGL
scattered clouds at 3000 feet AGL
broken clouds at 5000 feet AGL
Weather: -SHRA  (light rain showers)
Text: BECMG 2013/2015 18006KT
Forecast period: 1300 UTC 20 July 2019 to 1800 UTC 21 July 2019
Forecast type: BECOMING: Conditions expected to become as follows by 1500 UTC 20 July 2019
Winds: from the S (180 degrees) at 7 MPH (6 knots; 3.1 m/s)
Visibility: 6 or more miles 10+ km)
Ceiling: 5000 feet AGL
Clouds: few clouds at 1000 feet AGL
scattered clouds at 3000 feet AGL
broken clouds at 5000 feet AGL
Weather: -SHRA  (light rain showers)
Text: TEMPO 2023/2103 4000 SHRA BR
Forecast period: 2300 UTC 20 July 2019 to 0300 UTC 21 July 2019
Forecast type: TEMPORARY: The following changes expected for less than half the time period
Visibility: 2.49 miles (4.01 km)
Ceiling: unknown
Clouds: missing
Weather: SHRA BR  (rain showers, mist)